Time;durP1;ratioP1;P1;durP2;ratioP2;P2;SDS_P1;SDS_P2;PMS_P1;PMS_P2;Temp;Humidity;BMP_temperature;BMP_pressure;BME280_temperature;BME280_humidity;BME280_pressure;Samples;Min_cycle;Max_cycle;Signal;HPM_P1;HPM_P2
2023/02/08 00:01:31;;;;;;;18.23;9.07;;;-5.50;99.90;;;;;;4195863;28;20176;-71
2023/02/08 00:03:32;;;;;;;18.57;9.80;;;-5.40;99.90;;;;;;4196613;28;20606;-71
2023/02/08 00:05:33;;;;;;;16.70;9.37;;;-5.40;99.90;;;;;;4197267;28;20186;-71
2023/02/08 00:07:34;;;;;;;18.53;9.80;;;-5.40;99.90;;;;;;4195822;28;20264;-71
2023/02/08 00:09:34;;;;;;;17.97;10.00;;;-5.50;99.90;;;;;;4197080;28;20183;-71
2023/02/08 00:11:35;;;;;;;18.83;9.57;;;-5.70;99.90;;;;;;4196979;28;20181;-71
2023/02/08 00:13:37;;;;;;;19.33;9.20;;;-5.60;99.90;;;;;;4196213;28;20195;-71
2023/02/08 00:15:43;;;;;;;19.70;9.27;;;-5.70;99.90;;;;;;4197050;28;20211;-71
2023/02/08 00:17:43;;;;;;;16.93;8.77;;;-5.50;99.90;;;;;;4196090;28;20436;-71
2023/02/08 00:19:44;;;;;;;17.63;10.03;;;-5.50;99.90;;;;;;4196600;28;20430;-71
2023/02/08 00:21:45;;;;;;;19.17;10.20;;;-5.60;99.90;;;;;;4197013;28;20211;-71
2023/02/08 00:23:46;;;;;;;19.23;9.60;;;-5.70;99.90;;;;;;4195598;28;20214;-71
2023/02/08 00:25:47;;;;;;;17.63;8.77;;;-5.60;99.90;;;;;;4195685;28;20252;-71
2023/02/08 00:27:47;;;;;;;20.07;10.37;;;-5.60;99.90;;;;;;4196819;28;20896;-71
2023/02/08 00:29:48;;;;;;;20.40;10.27;;;-5.70;99.90;;;;;;4196517;28;20183;-71
2023/02/08 00:31:49;;;;;;;18.63;9.50;;;-5.70;99.90;;;;;;4196738;28;20183;-71
2023/02/08 00:33:50;;;;;;;16.03;8.67;;;-5.70;99.90;;;;;;4195673;28;20191;-71
2023/02/08 00:35:50;;;;;;;18.20;10.00;;;-5.70;99.90;;;;;;4196900;28;20763;-72
2023/02/08 00:37:51;;;;;;;22.07;10.63;;;-5.80;99.90;;;;;;4197184;28;20223;-72
2023/02/08 00:39:52;;;;;;;18.23;9.23;;;-5.70;99.90;;;;;;4196884;28;20186;-71
2023/02/08 00:41:52;;;;;;;17.60;9.47;;;-5.80;99.90;;;;;;4196872;28;20186;-71
2023/02/08 00:43:53;;;;;;;21.57;10.97;;;-5.80;99.90;;;;;;4196769;28;20262;-71
2023/02/08 00:45:58;;;;;;;15.43;8.33;;;-5.80;99.90;;;;;;4196745;28;20226;-71
2023/02/08 00:47:59;;;;;;;17.13;9.20;;;-5.90;99.90;;;;;;4195084;28;20203;-71
2023/02/08 00:50:00;;;;;;;21.47;11.07;;;-6.00;99.90;;;;;;4196615;28;20461;-71
2023/02/08 00:52:00;;;;;;;20.43;10.07;;;-6.00;99.90;;;;;;4196673;28;20187;-70
2023/02/08 00:54:01;;;;;;;14.07;9.23;;;-5.90;99.90;;;;;;4197108;28;20184;-72
2023/02/08 00:56:02;;;;;;;20.83;10.03;;;-5.90;99.90;;;;;;4195422;28;20203;-71
2023/02/08 00:58:03;;;;;;;18.57;9.13;;;-6.00;99.90;;;;;;4196173;28;20207;-71
2023/02/08 01:00:05;;;;;;;15.30;8.70;;;-6.00;99.90;;;;;;4196453;28;20180;-70
2023/02/08 01:02:06;;;;;;;16.90;9.70;;;-5.80;99.90;;;;;;4196896;28;20721;-70
2023/02/08 01:04:07;;;;;;;13.90;8.83;;;-5.80;99.90;;;;;;4195288;28;20434;-71
2023/02/08 01:06:13;;;;;;;17.70;8.90;;;-5.80;99.90;;;;;;4196780;28;20187;-71
2023/02/08 01:08:14;;;;;;;17.67;8.63;;;-5.80;99.90;;;;;;4195431;28;20256;-70
2023/02/08 01:10:15;;;;;;;19.03;9.30;;;-5.90;99.90;;;;;;4196180;28;20436;-71
2023/02/08 01:12:16;;;;;;;18.33;9.13;;;-5.90;99.90;;;;;;4195346;28;20433;-71
2023/02/08 01:14:17;;;;;;;17.57;9.67;;;-5.90;99.90;;;;;;4181839;28;20188;-71
2023/02/08 01:16:24;;;;;;;19.33;9.93;;;-6.00;99.90;;;;;;4178683;28;20261;-71
2023/02/08 01:18:25;;;;;;;19.50;10.60;;;-6.00;99.90;;;;;;4179893;28;20194;-70
2023/02/08 01:20:26;;;;;;;19.47;9.67;;;-6.00;99.90;;;;;;4180162;28;20504;-71
2023/02/08 01:22:28;;;;;;;18.90;9.53;;;-6.00;99.90;;;;;;4178660;28;20665;-71
2023/02/08 01:24:29;;;;;;;19.87;9.00;;;-6.00;99.90;;;;;;4180047;28;20604;-70
2023/02/08 01:26:30;;;;;;;18.13;8.80;;;-6.10;99.90;;;;;;4179737;28;20423;-70
2023/02/08 01:28:31;;;;;;;16.87;8.40;;;-6.20;99.90;;;;;;4178544;28;20180;-70
2023/02/08 01:30:32;;;;;;;21.93;10.37;;;-6.20;99.90;;;;;;4178276;28;20422;-71
2023/02/08 01:32:33;;;;;;;18.63;8.23;;;-6.20;99.90;;;;;;4178519;28;20494;-70
2023/02/08 01:34:33;;;;;;;18.07;9.60;;;-6.20;99.90;;;;;;4179890;28;20672;-72
2023/02/08 01:36:35;;;;;;;13.70;8.03;;;-6.30;99.90;;;;;;4179796;28;20248;-70
2023/02/08 01:38:37;;;;;;;17.40;8.27;;;-6.30;99.90;;;;;;4178444;28;20172;-70
2023/02/08 01:40:38;;;;;;;17.33;9.17;;;-6.30;99.90;;;;;;4179667;28;20406;-71
2023/02/08 01:42:38;;;;;;;15.10;8.67;;;-6.40;99.90;;;;;;4179592;28;20426;-70
2023/02/08 01:45:19;;;;;;;14.60;7.67;;;-6.40;99.90;;;;;;4178390;28;20361;-70
2023/02/08 01:47:20;;;;;;;23.73;8.77;;;-6.40;99.90;;;;;;4179531;28;20282;-71
2023/02/08 01:49:33;;;;;;;21.97;8.90;;;-6.50;99.90;;;;;;4178073;28;20422;-70
2023/02/08 01:51:44;;;;;;;16.07;8.13;;;-6.50;99.90;;;;;;4161814;28;20586;-70
2023/02/08 01:53:47;;;;;;;15.47;8.53;;;-6.60;99.90;;;;;;4178152;28;20989;-70
2023/02/08 01:55:54;;;;;;;16.57;8.60;;;-6.50;99.90;;;;;;4178382;28;20536;-70
2023/02/08 01:57:58;;;;;;;20.38;9.63;;;-6.50;99.90;;;;;;4161581;28;20530;-70
2023/02/08 02:00:08;;;;;;;17.27;8.87;;;-6.50;99.90;;;;;;4161652;28;20246;-70
2023/02/08 02:02:14;;;;;;;17.17;9.17;;;-6.60;99.90;;;;;;4178462;28;20465;-71
2023/02/08 02:04:15;;;;;;;18.13;9.23;;;-6.50;99.90;;;;;;4178251;28;20993;-70
2023/02/08 02:06:23;;;;;;;17.50;9.70;;;-6.50;99.90;;;;;;4178261;28;20421;-70
2023/02/08 02:08:24;;;;;;;16.47;8.30;;;-6.60;99.90;;;;;;4177788;28;20203;-70
2023/02/08 02:10:31;;;;;;;14.63;7.57;;;-6.60;99.90;;;;;;4181724;28;20521;-70
2023/02/08 02:12:32;;;;;;;12.70;6.97;;;-6.60;99.90;;;;;;4182532;28;20395;-70
2023/02/08 02:14:36;;;;;;;18.08;9.35;;;-6.60;99.90;;;;;;4181109;28;20241;-70
2023/02/08 02:16:37;;;;;;;14.52;7.07;;;-6.70;99.90;;;;;;4164492;28;20215;-71
2023/02/08 02:18:37;;;;;;;16.60;8.47;;;-6.60;99.90;;;;;;4197446;28;20601;-71
2023/02/08 02:21:10;;;;;;;16.10;8.17;;;-6.70;99.90;;;;;;4182258;28;20720;-70
2023/02/08 02:23:43;;;;;;;14.85;8.32;;;-6.70;99.90;;;;;;4179089;28;20203;-70
2023/02/08 02:25:53;;;;;;;11.35;6.97;;;-6.70;99.90;;;;;;4182308;28;20247;-70
2023/02/08 02:28:36;;;;;;;15.05;8.27;;;-6.90;99.90;;;;;;4182129;28;20204;-71
2023/02/08 02:31:21;;;;;;;12.25;7.40;;;-6.90;99.90;;;;;;4182338;28;20198;-70
2023/02/08 02:34:17;;;;;;;11.07;7.03;;;-7.00;99.90;;;;;;4167683;28;20664;-70
2023/02/08 02:36:52;;;;;;;15.63;7.13;;;-6.80;99.90;;;;;;4182171;28;20283;-70
2023/02/08 02:39:22;;;;;;;12.68;7.07;;;-6.90;99.90;;;;;;4164263;28;20633;-71
2023/02/08 02:44:39;;;;;;;15.25;7.38;;;-7.00;99.90;;;;;;4180601;28;20274;-70
2023/02/08 02:46:46;;;;;;;15.10;7.83;;;-7.10;99.90;;;;;;4180484;28;20183;-70
2023/02/08 02:49:15;;;;;;;13.02;7.15;;;-7.00;99.90;;;;;;4196517;28;20410;-71
2023/02/08 02:51:33;;;;;;;14.15;7.95;;;-7.00;99.90;;;;;;4197083;28;20204;-70
2023/02/08 02:54:01;;;;;;;15.00;7.83;;;-7.00;99.90;;;;;;4197274;28;20203;-70
2023/02/08 02:56:10;;;;;;;14.13;7.57;;;-7.00;99.90;;;;;;4180393;28;20561;-70
2023/02/08 02:58:15;;;;;;;16.95;6.93;;;-7.10;99.90;;;;;;4196904;28;20195;-70
2023/02/08 03:00:23;;;;;;;15.83;8.27;;;-7.10;99.90;;;;;;4197863;28;20265;-71
2023/02/08 03:02:27;;;;;;;15.98;7.97;;;-7.20;99.90;;;;;;4196911;28;20413;-71
2023/02/08 03:04:34;;;;;;;12.30;7.10;;;-7.10;99.90;;;;;;4193320;28;20853;-69
2023/02/08 03:07:49;;;;;;;13.32;7.18;;;-7.20;99.90;;;;;;4181572;28;20427;-69
2023/02/08 03:09:59;;;;;;;16.67;9.02;;;-7.20;99.90;;;;;;4146249;28;20170;-69
2023/02/08 03:12:35;;;;;;;14.52;7.05;;;-7.20;99.90;;;;;;4173819;28;20284;-69
2023/02/08 03:15:24;;;;;;;13.77;7.15;;;-7.30;99.90;;;;;;4163378;28;20302;-69
2023/02/08 03:18:03;;;;;;;16.60;7.97;;;-7.20;99.90;;;;;;4181193;28;20746;-69
2023/02/08 03:20:24;;;;;;;15.23;7.65;;;-7.20;99.90;;;;;;4179610;28;20629;-69
2023/02/08 03:22:57;;;;;;;14.82;7.90;;;-7.30;99.90;;;;;;4179959;28;20187;-69
2023/02/08 03:25:16;;;;;;;14.88;7.80;;;-7.10;99.90;;;;;;4181315;28;20176;-69
2023/02/08 03:27:26;;;;;;;12.32;7.43;;;-7.20;99.90;;;;;;4181302;28;20231;-69
2023/02/08 03:29:44;;;;;;;14.00;6.20;;;-7.20;99.90;;;;;;4180033;28;20242;-70
2023/02/08 03:31:53;;;;;;;12.68;6.80;;;-7.30;99.90;;;;;;4181354;28;20172;-69
2023/02/08 03:34:13;;;;;;;16.55;8.05;;;-7.20;99.90;;;;;;4181218;28;20310;-70
2023/02/08 03:36:27;;;;;;;13.60;7.77;;;-7.20;99.90;;;;;;4179559;28;20298;-69
2023/02/08 03:38:35;;;;;;;13.00;8.00;;;-7.20;99.90;;;;;;4179659;28;20427;-69
2023/02/08 03:40:43;;;;;;;14.98;7.47;;;-7.30;99.90;;;;;;4179905;28;20847;-68
2023/02/08 03:42:47;;;;;;;14.65;7.55;;;-7.20;99.90;;;;;;4179920;28;20176;-69
2023/02/08 03:45:00;;;;;;;14.32;7.22;;;-7.20;99.90;;;;;;4179703;28;20200;-69
2023/02/08 03:47:10;;;;;;;13.20;7.60;;;-7.40;99.90;;;;;;4179393;28;20218;-69
2023/02/08 03:49:17;;;;;;;15.57;7.20;;;-7.40;99.90;;;;;;4191389;28;20844;-69
2023/02/08 03:51:20;;;;;;;15.23;6.82;;;-7.40;99.90;;;;;;4196344;28;20270;-69
2023/02/08 03:53:23;;;;;;;13.57;6.65;;;-7.40;99.90;;;;;;4196299;28;20490;-69
2023/02/08 03:55:29;;;;;;;12.45;7.07;;;-7.50;99.90;;;;;;4196097;28;20658;-69
2023/02/08 03:57:42;;;;;;;12.45;6.43;;;-7.50;99.90;;;;;;4196173;28;20240;-69
2023/02/08 03:59:53;;;;;;;16.05;7.65;;;-7.50;99.90;;;;;;4196167;28;20760;-69
2023/02/08 04:02:03;;;;;;;13.63;6.95;;;-7.50;99.90;;;;;;4196132;28;20197;-69
2023/02/08 04:04:04;;;;;;;11.55;5.65;;;-7.60;99.90;;;;;;4194865;28;20203;-69
2023/02/08 04:06:05;;;;;;;11.35;6.55;;;-7.60;99.90;;;;;;4197128;28;20215;-69
2023/02/08 04:08:06;;;;;;;12.25;6.50;;;-7.70;99.90;;;;;;4196999;28;20208;-70
2023/02/08 04:10:07;;;;;;;13.97;6.20;;;-7.70;99.90;;;;;;4196914;28;20564;-70
2023/02/08 04:12:08;;;;;;;16.35;7.15;;;-7.70;99.90;;;;;;4195740;28;20184;-70
2023/02/08 04:14:08;;;;;;;11.70;6.23;;;-7.80;99.90;;;;;;4197188;28;20215;-70
2023/02/08 04:16:11;;;;;;;10.63;6.10;;;-7.70;99.90;;;;;;4197029;28;20240;-69
2023/02/08 04:18:13;;;;;;;9.95;5.75;;;-7.80;99.90;;;;;;4197032;28;20226;-69
2023/02/08 04:20:13;;;;;;;13.23;6.18;;;-7.80;99.90;;;;;;4197039;28;20621;-69
2023/02/08 04:22:14;;;;;;;10.43;5.43;;;-7.80;99.90;;;;;;4196952;28;20274;-70
2023/02/08 04:24:15;;;;;;;15.63;6.83;;;-7.70;99.90;;;;;;4196934;28;20176;-70
2023/02/08 04:26:15;;;;;;;12.87;5.97;;;-7.80;99.90;;;;;;4196953;28;20802;-71
2023/02/08 04:28:16;;;;;;;10.73;5.63;;;-7.80;99.90;;;;;;4196911;28;20218;-71
2023/02/08 04:30:17;;;;;;;9.57;5.30;;;-7.80;99.90;;;;;;4196666;28;20179;-71
2023/02/08 04:32:17;;;;;;;14.70;6.60;;;-7.70;99.90;;;;;;4196200;28;20281;-70
2023/02/08 04:34:19;;;;;;;10.87;6.00;;;-7.70;99.90;;;;;;4195832;28;20175;-71
2023/02/08 04:36:19;;;;;;;9.25;5.85;;;-7.70;99.90;;;;;;4196626;28;20218;-71
2023/02/08 04:38:20;;;;;;;13.30;7.60;;;-7.80;99.90;;;;;;4196710;28;20298;-70
2023/02/08 04:40:21;;;;;;;13.73;8.00;;;-7.80;99.90;;;;;;4196695;28;20186;-71
2023/02/08 04:42:21;;;;;;;11.20;6.93;;;-7.90;99.90;;;;;;4196928;28;20227;-70
2023/02/08 04:44:22;;;;;;;15.50;8.47;;;-8.00;99.90;;;;;;4196706;28;20652;-71
2023/02/08 04:46:23;;;;;;;13.13;8.53;;;-8.00;99.90;;;;;;4195629;28;20219;-71
2023/02/08 04:48:24;;;;;;;14.63;7.23;;;-8.00;99.90;;;;;;4195332;28;20199;-70
2023/02/08 04:50:25;;;;;;;13.83;7.80;;;-8.10;99.90;;;;;;4195232;28;20185;-70
2023/02/08 04:52:25;;;;;;;10.13;6.10;;;-8.10;99.90;;;;;;4196662;28;20195;-71
2023/02/08 04:54:26;;;;;;;11.73;5.93;;;-8.10;99.90;;;;;;4196435;28;20187;-70
2023/02/08 04:56:27;;;;;;;12.40;5.83;;;-8.10;99.90;;;;;;4196027;28;20183;-70
2023/02/08 04:58:28;;;;;;;12.63;5.53;;;-8.10;99.90;;;;;;4196104;28;20976;-68
2023/02/08 05:00:29;;;;;;;9.63;5.37;;;-8.20;99.90;;;;;;4184957;28;20183;-69
2023/02/08 05:02:29;;;;;;;10.48;5.65;;;-8.20;99.90;;;;;;4178722;28;20693;-69
2023/02/08 05:04:31;;;;;;;10.30;4.73;;;-8.10;99.90;;;;;;4178496;28;20195;-69
2023/02/08 05:06:32;;;;;;;12.18;5.15;;;-8.10;99.90;;;;;;4178378;28;20279;-69
2023/02/08 05:08:33;;;;;;;9.63;4.57;;;-8.20;99.90;;;;;;4179370;28;20188;-69
2023/02/08 05:10:34;;;;;;;12.77;5.17;;;-8.20;99.90;;;;;;4179834;28;20187;-70
2023/02/08 05:12:34;;;;;;;9.57;4.50;;;-8.10;99.90;;;;;;4178554;28;20314;-69
2023/02/08 05:14:35;;;;;;;9.83;5.23;;;-7.90;99.90;;;;;;4179679;28;20234;-69
2023/02/08 05:16:36;;;;;;;7.83;5.03;;;-7.90;99.90;;;;;;4179606;28;20211;-69
2023/02/08 05:18:36;;;;;;;7.60;4.43;;;-8.00;99.90;;;;;;4179463;28;20229;-69
2023/02/08 05:20:37;;;;;;;10.67;4.77;;;-7.80;99.90;;;;;;4179597;28;20664;-68
2023/02/08 05:22:38;;;;;;;10.27;5.23;;;-7.90;99.90;;;;;;4179685;28;20275;-69
2023/02/08 05:24:38;;;;;;;10.07;5.00;;;-7.90;99.90;;;;;;4179405;28;20241;-70
2023/02/08 05:26:40;;;;;;;10.37;4.97;;;-7.90;99.90;;;;;;4178287;28;20251;-69
2023/02/08 05:28:41;;;;;;;9.98;4.15;;;-7.80;99.90;;;;;;4178027;28;20176;-69
2023/02/08 05:30:42;;;;;;;8.23;4.43;;;-7.80;99.90;;;;;;4178145;28;20286;-70
2023/02/08 05:32:42;;;;;;;7.87;3.80;;;-7.80;99.90;;;;;;4179459;28;20177;-69
2023/02/08 05:34:43;;;;;;;9.37;5.07;;;-7.90;99.90;;;;;;4179477;28;20211;-69
2023/02/08 05:36:44;;;;;;;7.73;4.47;;;-7.80;99.90;;;;;;4178303;28;20192;-69
2023/02/08 05:38:44;;;;;;;9.30;4.87;;;-7.70;99.90;;;;;;4179537;28;20223;-69
2023/02/08 05:40:45;;;;;;;8.03;4.37;;;-7.70;99.90;;;;;;4179198;28;20202;-70
2023/02/08 05:42:46;;;;;;;10.07;5.20;;;-7.60;99.90;;;;;;4179140;28;20176;-69
2023/02/08 05:44:47;;;;;;;10.55;4.50;;;-7.70;99.90;;;;;;4179099;28;20723;-69
2023/02/08 05:46:48;;;;;;;7.53;4.00;;;-7.80;99.90;;;;;;4182095;28;20218;-69
2023/02/08 05:48:48;;;;;;;6.37;3.70;;;-7.80;99.90;;;;;;4182011;28;20563;-69
2023/02/08 05:50:49;;;;;;;9.10;4.30;;;-7.70;99.90;;;;;;4181447;28;20219;-70
2023/02/08 05:52:50;;;;;;;7.83;4.33;;;-7.70;99.90;;;;;;4196230;28;20176;-68
2023/02/08 05:54:50;;;;;;;8.37;4.50;;;-7.70;99.90;;;;;;4198527;28;20532;-68
2023/02/08 05:56:51;;;;;;;11.73;5.03;;;-7.60;99.90;;;;;;4197386;28;20709;-69
2023/02/08 05:58:52;;;;;;;10.13;5.90;;;-7.60;99.90;;;;;;4198741;28;20565;-69
2023/02/08 06:00:53;;;;;;;8.33;4.67;;;-7.60;99.90;;;;;;4198847;28;20294;-69
2023/02/08 06:02:53;;;;;;;8.27;5.00;;;-7.70;99.90;;;;;;4197425;28;20218;-69
2023/02/08 06:04:54;;;;;;;6.73;4.20;;;-7.80;99.90;;;;;;4197401;28;20423;-69
2023/02/08 06:06:55;;;;;;;8.70;4.50;;;-7.80;99.90;;;;;;4180533;28;20222;-69
2023/02/08 06:08:56;;;;;;;8.73;4.87;;;-7.90;99.90;;;;;;4198138;28;20174;-69
2023/02/08 06:10:56;;;;;;;7.23;3.87;;;-7.90;99.90;;;;;;4198400;28;20174;-69
2023/02/08 06:12:57;;;;;;;9.33;4.63;;;-8.00;99.90;;;;;;4197097;28;20183;-68
2023/02/08 06:14:58;;;;;;;11.67;5.53;;;-8.10;99.90;;;;;;4198366;28;20189;-69
2023/02/08 06:16:59;;;;;;;9.43;5.97;;;-8.10;99.90;;;;;;4198340;28;20444;-69
2023/02/08 06:18:59;;;;;;;12.73;6.43;;;-8.10;99.90;;;;;;4196694;28;20187;-68
2023/02/08 06:21:00;;;;;;;13.63;6.37;;;-8.10;99.90;;;;;;4197290;28;20279;-69
2023/02/08 06:23:01;;;;;;;11.07;6.17;;;-8.10;99.90;;;;;;4198202;28;20182;-69
2023/02/08 06:25:02;;;;;;;12.03;6.40;;;-8.20;99.90;;;;;;4198215;28;20659;-68
2023/02/08 06:27:02;;;;;;;9.07;5.82;;;-8.20;99.90;;;;;;4196763;28;20244;-69
2023/02/08 06:29:03;;;;;;;10.70;6.30;;;-8.20;99.90;;;;;;4197826;28;20246;-69
2023/02/08 06:31:04;;;;;;;13.50;5.43;;;-8.20;99.90;;;;;;4196969;28;20195;-69
2023/02/08 06:33:05;;;;;;;13.70;5.43;;;-8.20;99.90;;;;;;4196788;28;20240;-69
2023/02/08 06:35:06;;;;;;;9.43;4.47;;;-8.10;99.90;;;;;;4198181;28;20188;-70
2023/02/08 06:37:07;;;;;;;8.18;4.80;;;-8.10;99.90;;;;;;4196597;28;20199;-69
2023/02/08 06:39:07;;;;;;;11.63;5.00;;;-8.20;99.90;;;;;;4196636;28;20224;-69
2023/02/08 06:41:08;;;;;;;11.03;5.90;;;-8.10;99.90;;;;;;4197834;28;20180;-69
2023/02/08 06:43:09;;;;;;;9.77;5.40;;;-8.00;99.90;;;;;;4197882;28;20549;-69
2023/02/08 06:45:09;;;;;;;10.70;6.03;;;-8.00;99.90;;;;;;4197716;28;20204;-69
2023/02/08 06:47:10;;;;;;;13.47;6.07;;;-7.90;99.90;;;;;;4197588;28;20637;-69
2023/02/08 06:49:11;;;;;;;11.23;5.83;;;-8.00;99.90;;;;;;4197590;28;20741;-69
2023/02/08 06:51:11;;;;;;;12.47;5.93;;;-8.00;99.90;;;;;;4197731;28;20175;-69
2023/02/08 06:53:12;;;;;;;9.47;4.87;;;-8.00;99.90;;;;;;4196458;28;20209;-69
2023/02/08 06:55:13;;;;;;;10.17;5.00;;;-7.90;99.90;;;;;;4184484;28;20184;-69
2023/02/08 06:57:14;;;;;;;10.45;4.80;;;-7.80;99.90;;;;;;4179739;28;20192;-69
2023/02/08 06:59:15;;;;;;;9.27;4.75;;;-7.80;99.90;;;;;;4179572;28;20198;-69
2023/02/08 07:01:16;;;;;;;10.23;4.57;;;-7.80;99.90;;;;;;4181187;28;20728;-69
2023/02/08 07:03:16;;;;;;;8.20;4.17;;;-7.80;99.90;;;;;;4187662;28;20187;-69
2023/02/08 07:05:17;;;;;;;10.43;5.53;;;-7.80;99.90;;;;;;4197604;28;20236;-69
2023/02/08 07:07:18;;;;;;;8.67;4.90;;;-7.80;99.90;;;;;;4196234;28;20241;-69
2023/02/08 07:09:18;;;;;;;9.53;5.30;;;-7.80;99.90;;;;;;4197372;28;20180;-69
2023/02/08 07:11:20;;;;;;;9.90;5.37;;;-7.90;99.90;;;;;;4197629;28;20175;-69
2023/02/08 07:13:20;;;;;;;9.75;5.60;;;-7.80;99.90;;;;;;4196459;28;20229;-69
2023/02/08 07:15:21;;;;;;;9.43;4.83;;;-7.90;99.80;;;;;;4197557;28;20662;-69
2023/02/08 07:17:22;;;;;;;12.17;5.97;;;-7.80;99.90;;;;;;4197543;28;20625;-69
2023/02/08 07:19:22;;;;;;;8.63;5.73;;;-8.00;99.90;;;;;;4197280;28;20897;-70
2023/02/08 07:21:23;;;;;;;8.90;4.33;;;-7.90;99.90;;;;;;4197408;28;20183;-70
2023/02/08 07:23:24;;;;;;;7.60;4.00;;;-7.90;99.90;;;;;;4196053;28;20206;-69
2023/02/08 07:25:25;;;;;;;7.82;4.93;;;-7.70;99.90;;;;;;4197357;28;20231;-69
2023/02/08 07:27:26;;;;;;;8.97;5.10;;;-7.60;99.90;;;;;;4197085;28;20339;-69
2023/02/08 07:29:29;;;;;;;8.33;4.53;;;-7.70;99.90;;;;;;4179091;28;20184;-70
2023/02/08 07:31:30;;;;;;;8.25;4.53;;;-7.70;99.90;;;;;;4196028;28;20180;-69
2023/02/08 07:33:31;;;;;;;9.00;4.43;;;-7.70;99.90;;;;;;4197099;28;20193;-69
2023/02/08 07:35:31;;;;;;;9.37;4.23;;;-7.60;99.90;;;;;;4197033;28;20778;-69
2023/02/08 07:37:32;;;;;;;5.83;3.43;;;-7.40;99.90;;;;;;4197099;28;20195;-70
2023/02/08 07:39:33;;;;;;;9.03;4.77;;;-7.40;99.90;;;;;;4196712;28;20179;-69
2023/02/08 07:41:33;;;;;;;7.70;4.43;;;-7.30;99.90;;;;;;4196886;28;20186;-69
2023/02/08 07:43:35;;;;;;;7.23;4.60;;;-7.40;99.90;;;;;;4195766;28;20676;-69
2023/02/08 07:45:37;;;;;;;9.35;4.20;;;-7.30;99.80;;;;;;4195592;28;20214;-69
2023/02/08 07:47:38;;;;;;;6.43;3.60;;;-7.40;99.80;;;;;;4196820;28;20200;-68
2023/02/08 07:49:39;;;;;;;7.37;3.97;;;-7.30;99.90;;;;;;4196759;28;20726;-69
2023/02/08 07:51:39;;;;;;;7.00;4.27;;;-7.30;99.90;;;;;;4195635;28;20267;-68
2023/02/08 07:53:40;;;;;;;8.77;4.17;;;-7.20;99.90;;;;;;4195722;28;20180;-69
2023/02/08 07:55:41;;;;;;;8.37;4.30;;;-7.00;99.90;;;;;;4195537;28;20262;-69
2023/02/08 07:57:46;;;;;;;8.47;4.50;;;-7.10;99.90;;;;;;4195430;28;20207;-69
2023/02/08 07:59:47;;;;;;;9.70;4.95;;;-7.00;99.90;;;;;;4195411;28;20175;-69
2023/02/08 08:01:47;;;;;;;9.47;4.17;;;-6.90;99.90;;;;;;4197152;28;20642;-69
2023/02/08 08:03:50;;;;;;;6.30;4.00;;;-6.70;99.90;;;;;;4197804;28;20437;-69
2023/02/08 08:05:52;;;;;;;9.30;4.20;;;-6.70;99.90;;;;;;4196707;28;20211;-69
2023/02/08 08:07:52;;;;;;;5.90;3.67;;;-6.60;99.90;;;;;;4196054;28;20445;-70
2023/02/08 08:09:53;;;;;;;6.10;4.23;;;-6.50;99.90;;;;;;4196669;28;20441;-69
2023/02/08 08:11:53;;;;;;;8.23;3.90;;;-6.40;99.90;;;;;;4196762;28;20176;-70
2023/02/08 08:13:54;;;;;;;8.17;3.80;;;-6.40;99.90;;;;;;4195367;28;20211;-69
2023/02/08 08:15:55;;;;;;;9.57;4.40;;;-6.30;99.90;;;;;;4196599;28;20770;-70
2023/02/08 08:17:56;;;;;;;8.87;4.10;;;-6.20;99.90;;;;;;4196364;28;20196;-70
2023/02/08 08:19:56;;;;;;;12.20;4.77;;;-6.20;99.90;;;;;;4196340;28;20186;-69
2023/02/08 08:21:57;;;;;;;8.07;4.33;;;-6.00;99.80;;;;;;4195292;28;20184;-69
2023/02/08 08:23:58;;;;;;;7.47;4.20;;;-5.90;99.60;;;;;;4195186;28;20278;-69
2023/02/08 08:25:59;;;;;;;9.20;4.67;;;-5.80;99.60;;;;;;4196351;28;20711;-69
2023/02/08 08:28:01;;;;;;;14.90;7.97;;;-5.80;99.70;;;;;;4195007;28;20252;-69
2023/02/08 08:30:02;;;;;;;11.50;6.50;;;-5.70;99.10;;;;;;4194820;28;21057;-69
2023/02/08 08:32:03;;;;;;;10.60;5.87;;;-5.50;97.70;;;;;;4196334;28;20468;-69
2023/02/08 08:34:04;;;;;;;10.00;5.40;;;-5.40;97.30;;;;;;4195451;28;20513;-69
2023/02/08 08:36:06;;;;;;;9.93;5.57;;;-5.20;97.60;;;;;;4196279;28;20417;-69
2023/02/08 08:38:06;;;;;;;9.53;4.60;;;-5.10;97.90;;;;;;4196275;28;20207;-70
2023/02/08 08:40:08;;;;;;;10.00;5.03;;;-5.00;95.90;;;;;;4194828;28;20461;-70
2023/02/08 08:42:09;;;;;;;8.40;4.87;;;-4.90;96.80;;;;;;4196453;28;20183;-69
2023/02/08 08:44:10;;;;;;;11.30;5.20;;;-4.80;96.10;;;;;;4194658;28;20423;-68
2023/02/08 08:46:10;;;;;;;11.90;4.50;;;-4.80;96.70;;;;;;4196089;28;20294;-68
2023/02/08 08:48:12;;;;;;;9.43;5.50;;;-4.80;96.90;;;;;;4195884;28;20696;-68
2023/02/08 08:50:13;;;;;;;8.47;4.40;;;-4.70;97.10;;;;;;4195778;28;20175;-68
2023/02/08 08:52:16;;;;;;;8.37;4.47;;;-4.50;97.10;;;;;;4196004;28;20431;-68
2023/02/08 08:54:17;;;;;;;10.10;4.53;;;-4.60;96.80;;;;;;4195438;28;20481;-67
2023/02/08 08:56:18;;;;;;;7.50;4.13;;;-4.60;97.60;;;;;;4195023;28;20467;-68
2023/02/08 08:58:19;;;;;;;6.60;4.07;;;-4.40;97.60;;;;;;4194099;28;20446;-68
2023/02/08 09:00:20;;;;;;;9.33;3.80;;;-4.20;97.70;;;;;;4179930;28;20188;-69
2023/02/08 09:02:20;;;;;;;8.40;4.03;;;-4.10;98.10;;;;;;4179321;28;20663;-68
2023/02/08 09:04:21;;;;;;;8.93;4.43;;;-3.90;98.30;;;;;;4195055;28;20574;-68
2023/02/08 09:06:22;;;;;;;8.50;4.27;;;-3.80;97.00;;;;;;4194811;28;20205;-67
2023/02/08 09:08:23;;;;;;;8.53;4.20;;;-3.70;95.50;;;;;;4194377;28;20230;-67
2023/02/08 09:10:23;;;;;;;8.67;4.50;;;-3.50;94.40;;;;;;4195835;28;20181;-68
2023/02/08 09:12:24;;;;;;;7.77;4.07;;;-3.30;90.50;;;;;;4195937;28;20178;-68
2023/02/08 09:14:25;;;;;;;7.03;3.87;;;-3.20;92.30;;;;;;4195816;28;20194;-68
2023/02/08 09:16:26;;;;;;;8.10;3.83;;;-3.00;93.40;;;;;;4194685;28;20179;-68
2023/02/08 09:18:27;;;;;;;6.23;3.50;;;-3.10;91.10;;;;;;4195210;28;20444;-68
2023/02/08 09:20:27;;;;;;;8.03;4.20;;;-2.90;90.90;;;;;;4197968;28;20198;-68
2023/02/08 09:22:29;;;;;;;9.00;4.67;;;-2.70;85.80;;;;;;4199253;28;20224;-68
2023/02/08 09:24:29;;;;;;;9.10;4.33;;;-2.50;94.20;;;;;;4197966;28;20571;-68
2023/02/08 09:26:30;;;;;;;9.40;4.27;;;-2.40;86.50;;;;;;4198996;28;20548;-68
2023/02/08 09:28:31;;;;;;;8.43;4.47;;;-2.40;84.80;;;;;;4198726;28;20198;-68
2023/02/08 09:30:32;;;;;;;7.40;4.37;;;-2.00;83.80;;;;;;4199042;28;20271;-68
2023/02/08 09:32:33;;;;;;;6.33;3.87;;;-1.80;84.60;;;;;;4199066;28;20172;-68
2023/02/08 09:34:34;;;;;;;5.40;3.60;;;-1.80;90.10;;;;;;4199082;28;20636;-68
2023/02/08 09:36:38;;;;;;;5.73;3.70;;;-1.90;88.30;;;;;;4198989;28;20479;-68
2023/02/08 09:38:40;;;;;;;9.30;4.17;;;-1.70;90.40;;;;;;4197603;28;20698;-68
2023/02/08 09:41:21;;;;;;;6.50;3.87;;;-1.40;83.80;;;;;;4198998;28;20425;-68
2023/02/08 09:43:59;;;;;;;7.83;3.90;;;-1.10;79.70;;;;;;4198157;28;20439;-68
2023/02/08 09:46:11;;;;;;;7.23;4.27;;;-1.20;83.60;;;;;;4198873;28;20933;-68
2023/02/08 09:48:23;;;;;;;7.37;4.03;;;-1.10;74.70;;;;;;4197438;28;20433;-68
2023/02/08 09:50:41;;;;;;;7.93;4.30;;;-1.30;74.40;;;;;;4197649;28;20431;-69
2023/02/08 09:52:50;;;;;;;7.63;4.40;;;-1.00;78.70;;;;;;4197526;28;20809;-68
2023/02/08 09:54:58;;;;;;;6.90;4.13;;;-0.80;74.30;;;;;;4197403;28;20459;-68
2023/02/08 09:57:05;;;;;;;7.63;4.30;;;-0.50;80.80;;;;;;4197406;28;20446;-67
2023/02/08 09:59:20;;;;;;;7.33;4.20;;;0.00;87.60;;;;;;4180615;28;20437;-68
2023/02/08 10:01:28;;;;;;;6.47;4.27;;;1.00;84.50;;;;;;4197320;28;20430;-68
2023/02/08 10:03:43;;;;;;;7.17;3.93;;;2.10;82.30;;;;;;4197338;28;20424;-67
2023/02/08 10:05:44;;;;;;;9.53;4.97;;;3.00;66.80;;;;;;4180872;28;20943;-68
2023/02/08 10:07:45;;;;;;;7.10;4.77;;;3.60;76.00;;;;;;4197261;28;20449;-67
2023/02/08 10:09:45;;;;;;;7.50;4.77;;;3.80;75.00;;;;;;4196982;28;20179;-67
2023/02/08 10:12:01;;;;;;;6.87;4.10;;;3.30;62.10;;;;;;4198377;28;20187;-67
2023/02/08 10:14:20;;;;;;;6.97;4.87;;;2.70;63.50;;;;;;4198364;28;20185;-68
2023/02/08 10:17:01;;;;;;;8.43;4.90;;;3.40;74.10;;;;;;4198514;28;20949;-68
2023/02/08 10:19:26;;;;;;;8.37;4.63;;;3.60;58.20;;;;;;4197150;28;20856;-68
2023/02/08 10:22:03;;;;;;;7.53;4.33;;;3.90;72.60;;;;;;4198386;28;20187;-68
2023/02/08 10:24:14;;;;;;;6.40;4.30;;;4.50;62.50;;;;;;4198216;28;20169;-68
2023/02/08 10:26:45;;;;;;;7.70;4.80;;;4.10;56.00;;;;;;4196967;28;20199;-68
2023/02/08 10:29:03;;;;;;;6.80;4.53;;;3.60;66.30;;;;;;4196647;28;20532;-69
2023/02/08 10:31:32;;;;;;;9.00;4.87;;;4.20;64.60;;;;;;4196200;28;20171;-69
2023/02/08 10:33:48;;;;;;;7.40;4.70;;;4.70;61.00;;;;;;4196855;28;20649;-69
2023/02/08 10:35:50;;;;;;;8.53;5.27;;;5.10;61.50;;;;;;4198126;28;20195;-69
2023/02/08 10:37:52;;;;;;;7.23;4.80;;;5.50;57.90;;;;;;4196846;28;20294;-69
2023/02/08 10:39:54;;;;;;;6.93;5.00;;;5.70;58.70;;;;;;4197791;28;20183;-70
2023/02/08 10:41:55;;;;;;;5.60;4.20;;;5.80;58.60;;;;;;4196629;28;20211;-69
2023/02/08 10:44:17;;;;;;;7.57;4.73;;;5.80;52.10;;;;;;4197923;28;20183;-69
2023/02/08 10:46:39;;;;;;;6.20;3.97;;;5.20;58.40;;;;;;4197849;28;20207;-69
2023/02/08 10:49:04;;;;;;;7.93;4.07;;;5.90;55.50;;;;;;4196608;28;20172;-69
2023/02/08 10:51:17;;;;;;;5.53;3.67;;;6.70;49.00;;;;;;4197864;28;20183;-69